createdAt,value
2019-05-01T00:02:11.072Z,100365.98
2019-05-01T00:04:50.324Z,100357.03
2019-05-01T00:07:29.566Z,100352.71
2019-05-01T00:10:01.823Z,100346.25
2019-05-01T00:12:34.728Z,100339.73
2019-05-01T00:15:07.635Z,100343.53
2019-05-01T00:17:39.578Z,100339.73
2019-05-01T00:20:11.829Z,100336.98
2019-05-01T00:22:43.907Z,100332.17
2019-05-01T00:25:15.785Z,100334.36
2019-05-01T00:27:47.730Z,100335.63
2019-05-01T00:30:29.723Z,100334.58
2019-05-01T00:32:54.776Z,100324.80
2019-05-01T00:35:26.398Z,100326.94
2019-05-01T00:37:58.378Z,100321.18
2019-05-01T00:40:30.134Z,100315.72
2019-05-01T00:43:02.203Z,100317.03
2019-05-01T00:45:34.370Z,100313.70
2019-05-01T00:48:06.219Z,100297.71
2019-05-01T00:50:38.299Z,100306.89
2019-05-01T00:53:10.163Z,100300.86
2019-05-01T00:55:43.644Z,100290.28
2019-05-01T00:58:22.904Z,100288.37
2019-05-01T01:01:12.982Z,100288.58
2019-05-01T01:03:44.939Z,100282.42
2019-05-01T01:06:16.722Z,100287.02
2019-05-01T01:08:48.671Z,100284.56
2019-05-01T01:11:20.227Z,100281.85
2019-05-01T01:13:53.259Z,100278.05
2019-05-01T01:16:25.304Z,100276.73
2019-05-01T01:18:57.369Z,100271.88
2019-05-01T01:21:29.112Z,100268.70
2019-05-01T01:24:01.382Z,100266.77
2019-05-01T01:26:33.055Z,100268.48
2019-05-01T01:29:05.127Z,100258.39
2019-05-01T01:31:37.090Z,100257.34
2019-05-01T01:34:09.137Z,100258.64
2019-05-01T01:36:41.124Z,100256.77
2019-05-01T01:39:12.834Z,100250.05
2019-05-01T01:41:45.880Z,100256.59
2019-05-01T01:44:19.220Z,100245.76
2019-05-01T01:46:52.774Z,100243.63
2019-05-01T01:49:24.721Z,100246.34
2019-05-01T01:51:56.945Z,100240.61
2019-05-01T01:54:29.328Z,100245.20
2019-05-01T01:57:01.455Z,100238.73
2019-05-01T01:59:33.531Z,100240.03
2019-05-01T02:02:19.298Z,100239.98
2019-05-01T02:05:05.189Z,100232.70
2019-05-01T02:07:37.272Z,100227.59
2019-05-01T02:10:09.570Z,100221.81
2019-05-01T02:12:43.061Z,100220.72
2019-05-01T02:15:14.662Z,100221.50
2019-05-01T02:17:46.367Z,100218.23
2019-05-01T02:20:18.703Z,100218.23
2019-05-01T02:22:50.285Z,100219.23
2019-05-01T02:25:22.980Z,100213.77
2019-05-01T02:28:13.590Z,100214.02
2019-05-01T02:30:47.290Z,100216.73
2019-05-01T02:33:19.154Z,100214.81
2019-05-01T02:35:51.721Z,100207.98
2019-05-01T02:38:24.077Z,100210.16
2019-05-01T02:40:58.304Z,100204.23
2019-05-01T02:43:30.634Z,100202.62
2019-05-01T02:46:05.443Z,100204.48
2019-05-01T02:48:39.961Z,100196.53
2019-05-01T02:51:12.834Z,100200.23
2019-05-01T02:53:47.184Z,100197.16
2019-05-01T02:56:25.140Z,100193.05
2019-05-01T02:58:58.301Z,100192.94
2019-05-01T03:01:45.728Z,100199.61
2019-05-01T03:04:04.347Z,100194.05
2019-05-01T03:06:37.365Z,100194.50
2019-05-01T03:09:09.086Z,100198.52
2019-05-01T03:11:42.910Z,100200.78
2019-05-01T03:14:17.532Z,100203.88
2019-05-01T03:16:51.957Z,100201.65
2019-05-01T03:19:32.098Z,100198.62
2019-05-01T03:22:24.973Z,100205.09
2019-05-01T03:24:56.995Z,100202.27
2019-05-01T03:27:29.090Z,100201.95
2019-05-01T03:30:01.090Z,100201.11
2019-05-01T03:32:33.960Z,100198.56
2019-05-01T03:35:07.838Z,100195.31
2019-05-01T03:37:39.759Z,100203.08
2019-05-01T03:40:13.330Z,100210.09
2019-05-01T03:42:45.406Z,100215.52
2019-05-01T03:45:17.165Z,100214.66
2019-05-01T03:47:49.219Z,100213.47
2019-05-01T03:50:21.295Z,100212.56
2019-05-01T03:52:52.957Z,100216.06
2019-05-01T03:55:25.462Z,100217.17
2019-05-01T03:57:57.806Z,100212.75
2019-05-01T04:00:34.501Z,100207.27
2019-05-01T04:03:24.385Z,100204.18
2019-05-01T04:05:57.078Z,100186.03
2019-05-01T04:08:29.571Z,100184.88
2019-05-01T04:11:01.939Z,100182.56
2019-05-01T04:13:34.427Z,100177.98
2019-05-01T04:16:06.263Z,100183.30
2019-05-01T04:18:39.166Z,100184.02
2019-05-01T04:21:11.495Z,100184.90
2019-05-01T04:23:43.387Z,100190.33
2019-05-01T04:26:15.394Z,100188.84
2019-05-01T04:28:55.006Z,100190.36
2019-05-01T04:31:40.369Z,100188.30
2019-05-01T04:34:30.674Z,100190.80
2019-05-01T04:37:10.614Z,100183.84
2019-05-01T04:39:42.470Z,100186.50
2019-05-01T04:42:14.741Z,100185.86
2019-05-01T04:44:46.787Z,100176.16
2019-05-01T04:47:19.203Z,100177.91
2019-05-01T04:49:51.191Z,100171.39
2019-05-01T04:52:23.446Z,100173.17
2019-05-01T04:54:55.812Z,100174.28
2019-05-01T04:57:27.583Z,100170.86
2019-05-01T05:00:00.572Z,100168.64
2019-05-01T05:02:37.248Z,100170.47
2019-05-01T05:05:09.936Z,100170.50
2019-05-01T05:07:42.271Z,100176.11
2019-05-01T05:10:15.208Z,100174.34
2019-05-01T05:12:48.804Z,100166.22
2019-05-01T05:15:39.495Z,100164.69
2019-05-01T05:18:12.174Z,100156.17
2019-05-01T05:20:43.943Z,100151.98
2019-05-01T05:23:17.154Z,100150.55
2019-05-01T05:25:49.324Z,100137.15
2019-05-01T05:28:22.128Z,100143.30
2019-05-01T05:30:57.228Z,100145.18
2019-05-01T05:33:31.750Z,100146.59
2019-05-01T05:36:05.783Z,100141.06
2019-05-01T05:38:41.971Z,100139.45
2019-05-01T05:41:15.625Z,100136.15
2019-05-01T05:43:47.518Z,100132.64
2019-05-01T05:46:19.366Z,100122.55
2019-05-01T05:48:51.537Z,100121.34
2019-05-01T05:51:41.713Z,100122.95
2019-05-01T05:54:32.660Z,100126.59
2019-05-01T05:57:08.117Z,100119.91
2019-05-01T05:59:44.022Z,100114.87
2019-05-01T06:02:28.943Z,100114.45
2019-05-01T06:05:07.787Z,100111.19
2019-05-01T06:07:46.824Z,100102.71
2019-05-01T06:10:30.916Z,100109.67
2019-05-01T06:13:04.831Z,100105.44
2019-05-01T06:15:41.165Z,100100.91
2019-05-01T06:18:15.684Z,100103.09
2019-05-01T06:20:49.651Z,100110.02
2019-05-01T06:23:24.568Z,100116.39
2019-05-01T06:26:02.487Z,100117.22
2019-05-01T06:28:33.641Z,100122.34
2019-05-01T06:31:23.026Z,100126.77
2019-05-01T06:33:54.953Z,100122.78
2019-05-01T06:36:27.462Z,100122.33
2019-05-01T06:39:00.656Z,100134.38
2019-05-01T06:41:42.148Z,100135.84
2019-05-01T06:44:13.484Z,100139.92
2019-05-01T06:46:53.534Z,100145.58
2019-05-01T06:49:29.342Z,100144.70
2019-05-01T06:52:06.234Z,100144.17
2019-05-01T06:54:38.221Z,100144.34
2019-05-01T06:57:10.102Z,100143.95
2019-05-01T06:59:43.038Z,100146.56
2019-05-01T07:02:16.060Z,100143.05
2019-05-01T07:04:50.391Z,100143.65
2019-05-01T07:07:25.712Z,100139.05
2019-05-01T07:09:57.739Z,100142.01
2019-05-01T07:12:32.469Z,100144.28
2019-05-01T07:15:05.549Z,100133.28
2019-05-01T07:17:37.330Z,100135.39
2019-05-01T07:20:11.823Z,100142.53
2019-05-01T07:22:45.744Z,100142.17
2019-05-01T07:25:18.444Z,100136.48
2019-05-01T07:27:54.030Z,100131.66
2019-05-01T07:30:26.271Z,100132.86
2019-05-01T07:32:58.232Z,100141.38
2019-05-01T07:35:32.988Z,100141.98
2019-05-01T07:38:03.804Z,100123.62
2019-05-01T07:40:36.383Z,100125.25
2019-05-01T07:43:09.583Z,100116.91
2019-05-01T07:45:44.690Z,100113.42
2019-05-01T07:48:19.243Z,100103.23
2019-05-01T07:50:51.412Z,100094.23
2019-05-01T07:53:23.765Z,100085.61
2019-05-01T07:55:56.963Z,100067.16
2019-05-01T07:58:29.771Z,100060.00
2019-05-01T08:01:06.439Z,100060.27
2019-05-01T08:03:42.693Z,100068.36
2019-05-01T08:06:16.253Z,100070.44
2019-05-01T08:08:46.415Z,100073.53
2019-05-01T08:11:19.100Z,100077.19
2019-05-01T08:13:50.880Z,100081.94
2019-05-01T08:16:22.842Z,100096.19
2019-05-01T08:19:12.402Z,100095.40
2019-05-01T08:21:45.822Z,100097.52
2019-05-01T08:24:22.472Z,100097.20
2019-05-01T08:26:51.202Z,100096.18
2019-05-01T08:29:42.045Z,100096.52
2019-05-01T08:32:33.805Z,100098.75
2019-05-01T08:35:11.726Z,100086.11
2019-05-01T08:37:43.496Z,100093.94
2019-05-01T08:40:20.101Z,100084.73
2019-05-01T08:42:48.943Z,100084.22
2019-05-01T08:45:28.609Z,100082.69
2019-05-01T08:48:04.767Z,100080.68
2019-05-01T08:50:36.512Z,100085.48
2019-05-01T08:53:08.801Z,100088.35
2019-05-01T08:55:45.014Z,100087.69
2019-05-01T08:58:14.292Z,100081.02
2019-05-01T09:00:46.934Z,100077.44
2019-05-01T09:03:20.440Z,100075.31
2019-05-01T09:05:56.868Z,100073.12
2019-05-01T09:08:26.974Z,100064.25
2019-05-01T09:11:00.720Z,100056.83
2019-05-01T09:13:33.127Z,100054.41
2019-05-01T09:16:05.423Z,100051.55
2019-05-01T09:18:37.248Z,100050.91
2019-05-01T09:21:09.436Z,100043.95
2019-05-01T09:23:41.182Z,100038.75
2019-05-01T09:26:17.772Z,100042.31
2019-05-01T09:28:57.218Z,100036.98
2019-05-01T09:31:34.009Z,100029.78
2019-05-01T09:34:05.169Z,100019.78
2019-05-01T09:36:36.899Z,100014.02
2019-05-01T09:39:10.818Z,100018.82
2019-05-01T09:41:46.956Z,100015.80
2019-05-01T09:44:16.369Z,100017.42
2019-05-01T09:46:48.660Z,100014.90
2019-05-01T09:49:21.224Z,100009.04
2019-05-01T09:52:00.681Z,100014.25
2019-05-01T09:54:46.780Z,100006.45
2019-05-01T09:57:19.463Z,100007.09
2019-05-01T09:59:51.408Z,100007.84
2019-05-01T10:02:23.485Z,99998.23
2019-05-01T10:04:55.567Z,99991.97
2019-05-01T10:07:28.996Z,99990.86
2019-05-01T10:10:00.728Z,99993.27
2019-05-01T10:12:32.495Z,99987.14
2019-05-01T10:15:07.102Z,99990.70
2019-05-01T10:17:38.679Z,99985.95
2019-05-01T10:20:11.241Z,99976.30
2019-05-01T10:22:43.119Z,99983.20
2019-05-01T10:25:15.291Z,99977.28
2019-05-01T10:27:48.570Z,99973.94
2019-05-01T10:30:38.377Z,99980.25
2019-05-01T10:33:11.977Z,99973.93
2019-05-01T10:36:00.325Z,99969.14
2019-05-01T10:38:32.391Z,99980.80
2019-05-01T10:41:09.238Z,99973.12
2019-05-01T10:43:38.884Z,99967.59
2019-05-01T10:46:10.954Z,99964.43
2019-05-01T10:48:43.211Z,99963.83
2019-05-01T10:51:14.987Z,99954.94
2019-05-01T10:53:47.056Z,99952.55
2019-05-01T10:56:18.821Z,99945.44
2019-05-01T10:58:52.021Z,99950.77
2019-05-01T11:01:34.409Z,99951.37
2019-05-01T11:04:06.394Z,99954.37
2019-05-01T11:06:38.363Z,99952.40
2019-05-01T11:09:10.312Z,99940.69
2019-05-01T11:11:42.285Z,99943.09
2019-05-01T11:14:13.855Z,99934.63
2019-05-01T11:16:46.025Z,99926.73
2019-05-01T11:19:17.793Z,99921.20
2019-05-01T11:21:49.758Z,99923.36
2019-05-01T11:24:21.804Z,99920.24
2019-05-01T11:26:53.770Z,99912.77
2019-05-01T11:29:25.739Z,99915.73
2019-05-01T11:32:02.325Z,99912.77
2019-05-01T11:34:41.852Z,99912.77
2019-05-01T11:37:31.662Z,99913.16
2019-05-01T11:40:07.806Z,99910.20
2019-05-01T11:42:39.887Z,99909.61
2019-05-01T11:45:12.161Z,99913.36
2019-05-01T11:47:44.082Z,99911.20
2019-05-01T11:50:16.180Z,99902.13
2019-05-01T11:52:48.162Z,99899.17
2019-05-01T11:55:20.028Z,99901.91
2019-05-01T11:57:51.873Z,99898.96
2019-05-01T12:00:24.181Z,99891.44
2019-05-01T12:02:55.701Z,99894.63
2019-05-01T12:05:27.770Z,99889.88
2019-05-01T12:07:59.737Z,99885.97
2019-05-01T12:10:31.801Z,99887.73
2019-05-01T12:13:03.480Z,99887.34
2019-05-01T12:15:35.548Z,99879.64
2019-05-01T12:18:07.091Z,99867.22
2019-05-01T12:20:39.155Z,99871.55
2019-05-01T12:23:11.021Z,99867.19
2019-05-01T12:25:43.008Z,99864.03
2019-05-01T12:28:14.870Z,99862.70
2019-05-01T12:30:46.628Z,99856.75
2019-05-01T12:33:18.273Z,99854.91
2019-05-01T12:35:51.996Z,99848.37
2019-05-01T12:38:23.858Z,99844.27
2019-05-01T12:41:06.250Z,99842.09
2019-05-01T12:43:39.053Z,99831.45
2019-05-01T12:46:12.147Z,99826.31
2019-05-01T12:48:44.092Z,99831.61
2019-05-01T12:51:16.304Z,99829.88
2019-05-01T12:53:55.622Z,99821.25
2019-05-01T12:56:28.876Z,99817.11
2019-05-01T12:59:00.406Z,99812.60
2019-05-01T13:01:31.851Z,99804.11
2019-05-01T13:04:03.323Z,99807.88
2019-05-01T13:06:34.813Z,99804.31
2019-05-01T13:09:08.436Z,99803.72
2019-05-01T13:11:40.402Z,99793.27
2019-05-01T13:14:12.472Z,99791.88
2019-05-01T13:16:44.236Z,99783.77
2019-05-01T13:19:16.404Z,99772.05
2019-05-01T13:21:48.265Z,99767.70
2019-05-01T13:24:21.154Z,99764.70
2019-05-01T13:26:54.960Z,99758.00
2019-05-01T13:29:28.054Z,99756.21
2019-05-01T13:32:07.582Z,99757.39
2019-05-01T13:34:39.359Z,99741.22
2019-05-01T13:37:11.222Z,99742.23
2019-05-01T13:39:43.185Z,99735.80
2019-05-01T13:42:15.338Z,99734.39
2019-05-01T13:44:48.144Z,99731.02
2019-05-01T13:47:20.092Z,99729.59
2019-05-01T13:49:52.056Z,99727.03
2019-05-01T13:52:24.229Z,99729.13
2019-05-01T13:54:56.007Z,99718.92
2019-05-01T13:57:27.973Z,99719.34
2019-05-01T13:59:59.942Z,99722.15
2019-05-01T14:02:31.884Z,99717.03
2019-05-01T14:05:03.545Z,99725.28
2019-05-01T14:07:37.060Z,99723.53
2019-05-01T14:10:09.482Z,99727.08
2019-05-01T14:12:41.096Z,99728.61
2019-05-01T14:15:14.248Z,99720.12
2019-05-01T14:17:48.103Z,99724.27
2019-05-01T14:20:21.803Z,99718.60
2019-05-01T14:22:54.894Z,99715.42
2019-05-01T14:25:26.765Z,99715.05
2019-05-01T14:27:58.421Z,99719.18
2019-05-01T14:30:30.285Z,99713.25
2019-05-01T14:33:02.034Z,99710.69
2019-05-01T14:35:33.911Z,99705.14
2019-05-01T14:38:05.564Z,99710.25
2019-05-01T14:40:37.329Z,99709.08
2019-05-01T14:43:09.181Z,99713.02
2019-05-01T14:45:42.677Z,99710.09
2019-05-01T14:48:14.436Z,99699.06
2019-05-01T14:50:46.216Z,99698.45
2019-05-01T14:53:18.390Z,99704.50
2019-05-01T14:55:50.154Z,99700.58
2019-05-01T14:58:22.306Z,99700.44
2019-05-01T15:00:54.068Z,99692.34
2019-05-01T15:03:26.048Z,99686.04
2019-05-01T15:05:57.810Z,99684.28
2019-05-01T15:08:29.559Z,99682.92
2019-05-01T15:11:01.314Z,99679.56
2019-05-01T15:13:53.058Z,99672.66
2019-05-01T15:16:26.465Z,99670.72
2019-05-01T15:19:06.090Z,99666.94
2019-05-01T15:21:38.069Z,99660.62
2019-05-01T15:24:10.124Z,99662.87
2019-05-01T15:26:42.000Z,99656.33
2019-05-01T15:29:13.964Z,99657.30
2019-05-01T15:31:45.936Z,99655.48
2019-05-01T15:34:17.778Z,99658.02
2019-05-01T15:36:49.434Z,99651.45
2019-05-01T15:39:35.025Z,99648.55
2019-05-01T15:42:08.441Z,99643.09
2019-05-01T15:44:41.839Z,99646.31
2019-05-01T15:47:14.523Z,99658.66
2019-05-01T15:49:46.386Z,99664.45
2019-05-01T15:52:18.229Z,99659.97
2019-05-01T15:54:50.010Z,99650.76
2019-05-01T15:57:21.973Z,99646.45
2019-05-01T15:59:53.735Z,99645.70
2019-05-01T16:02:25.593Z,99646.09
2019-05-01T16:04:57.352Z,99641.36
2019-05-01T16:07:29.013Z,99649.19
2019-05-01T16:10:01.800Z,99641.89
2019-05-01T16:12:34.895Z,99630.54
2019-05-01T16:15:09.794Z,99632.10
2019-05-01T16:17:41.268Z,99629.34
2019-05-01T16:20:13.223Z,99630.18
2019-05-01T16:22:44.806Z,99628.00
2019-05-01T16:25:16.892Z,99625.41
2019-05-01T16:27:48.531Z,99630.48
2019-05-01T16:30:24.916Z,99623.58
2019-05-01T16:32:56.870Z,99622.83
2019-05-01T16:35:28.531Z,99630.20
2019-05-01T16:38:01.997Z,99624.22
2019-05-01T16:40:44.660Z,99627.62
2019-05-01T16:43:16.611Z,99624.81
2019-05-01T16:45:48.460Z,99622.03
2019-05-01T16:48:19.933Z,99623.44
2019-05-01T16:50:51.669Z,99631.50
2019-05-01T16:53:23.226Z,99632.31
2019-05-01T16:55:55.211Z,99636.44
2019-05-01T16:58:26.867Z,99639.55
2019-05-01T17:01:03.545Z,99643.44
2019-05-01T17:03:42.989Z,99644.40
2019-05-01T17:06:25.478Z,99647.33
2019-05-01T17:09:01.920Z,99652.52
2019-05-01T17:11:35.463Z,99655.02
2019-05-01T17:14:08.869Z,99663.53
2019-05-01T17:16:41.857Z,99673.99
2019-05-01T17:19:13.723Z,99670.23
2019-05-01T17:21:45.586Z,99674.52
2019-05-01T17:24:17.534Z,99683.27
2019-05-01T17:26:49.409Z,99678.97
2019-05-01T17:29:20.970Z,99681.11
2019-05-01T17:31:52.863Z,99683.44
2019-05-01T17:34:25.585Z,99693.25
2019-05-01T17:36:57.689Z,99704.40
2019-05-01T17:39:29.431Z,99694.86
2019-05-01T17:42:02.048Z,99700.45
2019-05-01T17:44:34.883Z,99697.06
2019-05-01T17:47:06.885Z,99697.59
2019-05-01T17:49:41.144Z,99691.60
2019-05-01T17:52:11.739Z,99695.25
2019-05-01T17:54:43.699Z,99700.87
2019-05-01T17:57:15.365Z,99707.16
2019-05-01T17:59:48.454Z,99705.83
2019-05-01T18:02:24.701Z,99712.36
2019-05-01T18:04:57.895Z,99703.50
2019-05-01T18:07:33.183Z,99706.58
2019-05-01T18:10:05.328Z,99709.65
2019-05-01T18:12:37.094Z,99701.70
2019-05-01T18:15:09.057Z,99707.06
2019-05-01T18:17:42.249Z,99712.73
2019-05-01T18:20:13.908Z,99709.69
2019-05-01T18:22:50.052Z,99717.73
2019-05-01T18:25:33.088Z,99717.87
2019-05-01T18:28:07.715Z,99717.74
2019-05-01T18:30:41.128Z,99718.88
2019-05-01T18:33:12.887Z,99717.19
2019-05-01T18:35:48.862Z,99721.13
2019-05-01T18:38:22.380Z,99719.19
2019-05-01T18:40:56.394Z,99719.98
2019-05-01T18:43:32.370Z,99709.52
2019-05-01T18:46:08.309Z,99712.34
2019-05-01T18:48:39.823Z,99710.75
2019-05-01T18:51:11.689Z,99708.34
2019-05-01T18:53:43.655Z,99707.88
2019-05-01T18:56:15.416Z,99709.23
2019-05-01T18:58:47.155Z,99713.98
2019-05-01T19:01:19.167Z,99708.65
2019-05-01T19:03:51.720Z,99714.64
2019-05-01T19:06:23.689Z,99707.97
2019-05-01T19:08:55.651Z,99712.59
2019-05-01T19:11:27.279Z,99708.98
2019-05-01T19:13:59.670Z,99715.11
2019-05-01T19:16:33.795Z,99708.55
2019-05-01T19:19:05.955Z,99714.67
2019-05-01T19:21:41.862Z,99714.23
2019-05-01T19:24:11.068Z,99711.52
2019-05-01T19:26:44.091Z,99712.66
2019-05-01T19:29:16.056Z,99709.37
2019-05-01T19:31:47.635Z,99705.65
2019-05-01T19:34:19.206Z,99699.31
2019-05-01T19:36:51.598Z,99703.16
2019-05-01T19:39:23.575Z,99701.45
2019-05-01T19:41:55.396Z,99699.88
2019-05-01T19:44:27.451Z,99701.34
2019-05-01T19:46:59.132Z,99708.86
2019-05-01T19:49:30.905Z,99713.49
2019-05-01T19:52:03.126Z,99706.81
2019-05-01T19:54:35.888Z,99705.69
2019-05-01T19:57:07.605Z,99699.55
2019-05-01T19:59:41.160Z,99699.21
2019-05-01T20:02:17.150Z,99700.91
2019-05-01T20:04:50.438Z,99696.36
2019-05-01T20:07:21.641Z,99692.62
2019-05-01T20:09:57.059Z,99686.05
2019-05-01T20:12:29.912Z,99680.24
2019-05-01T20:15:01.814Z,99678.08
2019-05-01T20:17:33.779Z,99677.06
2019-05-01T20:20:07.260Z,99683.50
2019-05-01T20:22:38.837Z,99680.00
2019-05-01T20:25:10.581Z,99680.20
2019-05-01T20:27:45.480Z,99684.16
2019-05-01T20:30:16.013Z,99676.23
2019-05-01T20:32:49.560Z,99682.32
2019-05-01T20:35:28.370Z,99677.80
2019-05-01T20:37:58.608Z,99667.25
2019-05-01T20:40:30.512Z,99664.87
2019-05-01T20:43:13.969Z,99661.09
2019-05-01T20:45:49.380Z,99658.16
2019-05-01T20:48:23.662Z,99651.91
2019-05-01T20:50:52.145Z,99647.05
2019-05-01T20:53:23.604Z,99645.69
2019-05-01T20:56:00.190Z,99644.66
2019-05-01T20:58:32.059Z,99642.05
2019-05-01T21:01:04.230Z,99644.88
2019-05-01T21:03:37.422Z,99645.31
2019-05-01T21:06:22.989Z,99636.81
2019-05-01T21:09:02.557Z,99629.33
2019-05-01T21:11:42.348Z,99632.92
2019-05-01T21:14:22.348Z,99626.08
2019-05-01T21:16:46.549Z,99623.52
2019-05-01T21:19:18.096Z,99623.34
2019-05-01T21:21:49.956Z,99631.81
2019-05-01T21:24:24.048Z,99627.59
2019-05-01T21:26:56.759Z,99625.30
2019-05-01T21:29:28.614Z,99626.33
2019-05-01T21:32:03.340Z,99627.38
2019-05-01T21:34:34.376Z,99622.06
2019-05-01T21:37:06.377Z,99622.30
2019-05-01T21:39:38.152Z,99623.47
2019-05-01T21:42:12.175Z,99620.95
2019-05-01T21:44:44.187Z,99619.14
2019-05-01T21:47:15.944Z,99614.38
2019-05-01T21:49:48.027Z,99609.72
2019-05-01T21:52:25.110Z,99603.90
2019-05-01T21:54:55.427Z,99604.09
2019-05-01T21:57:29.583Z,99607.03
2019-05-01T21:59:59.972Z,99606.55
2019-05-01T22:02:31.748Z,99603.72
2019-05-01T22:05:04.126Z,99598.83
2019-05-01T22:07:37.607Z,99594.06
2019-05-01T22:10:09.671Z,99594.30
2019-05-01T22:12:43.872Z,99593.97
2019-05-01T22:15:16.594Z,99587.52
2019-05-01T22:17:52.967Z,99586.58
2019-05-01T22:20:26.362Z,99581.34
2019-05-01T22:23:02.405Z,99567.95
2019-05-01T22:25:38.619Z,99575.73
2019-05-01T22:28:14.079Z,99575.83
2019-05-01T22:30:47.561Z,99573.12
2019-05-01T22:33:19.384Z,99569.86
2019-05-01T22:35:52.383Z,99574.95
2019-05-01T22:38:23.958Z,99569.64
2019-05-01T22:41:05.906Z,99562.06
2019-05-01T22:43:30.930Z,99558.33
2019-05-01T22:46:03.659Z,99550.70
2019-05-01T22:48:35.065Z,99555.87
2019-05-01T22:51:08.587Z,99552.64
2019-05-01T22:53:40.347Z,99552.69
2019-05-01T22:56:12.310Z,99556.73
2019-05-01T22:58:44.157Z,99555.00
2019-05-01T23:01:18.229Z,99554.77
2019-05-01T23:03:51.267Z,99551.15
2019-05-01T23:06:23.015Z,99558.75
2019-05-01T23:08:54.901Z,99553.86
2019-05-01T23:11:28.227Z,99550.60
2019-05-01T23:13:59.856Z,99551.27
2019-05-01T23:16:33.356Z,99555.09
2019-05-01T23:19:05.131Z,99551.48
2019-05-01T23:21:36.553Z,99547.55
2019-05-01T23:24:08.925Z,99546.89
2019-05-01T23:26:40.506Z,99546.02
2019-05-01T23:29:12.259Z,99540.34
2019-05-01T23:31:44.033Z,99544.42
2019-05-01T23:34:15.881Z,99545.08
2019-05-01T23:36:47.947Z,99545.53
2019-05-01T23:39:19.530Z,99547.80
2019-05-01T23:41:51.249Z,99544.59
2019-05-01T23:44:23.028Z,99541.28
2019-05-01T23:46:54.686Z,99544.39
2019-05-01T23:49:26.549Z,99535.94
2019-05-01T23:52:03.219Z,99522.01
2019-05-01T23:54:31.833Z,99530.33
2019-05-01T23:57:05.318Z,99525.16
2019-05-01T23:59:37.162Z,99517.02
